Terminal Aerodrome Forecast
Issued by NWS Sioux Falls, SD

Home | Current Version | Previous Version | Graphics & Text | Print | Product List | Glossary On
Versions: 1 2 3 4 5 6 7 8 9 10 11 12 13 14 15 16 17 18 19 20 21 22 23 24 25 26 27 28 29 30 31 32 33 34 35 36
000
FTUS43 KFSD 181504 AAA
TAFSUX
TAF AMD
KSUX 181504Z 1815/1912 08005KT 6SM -SHRA VCTS OVC060CB
      TEMPO 1816/1820 5SM -TSRA SCT025CB
     FM182200 12007KT P6SM SCT015 BKN035
     FM190100 12006KT 6SM BR OVC022
     FM190700 22009KT 6SM BR OVC020=

USA.gov is the U.S. government's official web portal to all federal, state and local government web resources and services.